Time;durP1;ratioP1;P1;durP2;ratioP2;P2;SDS_P1;SDS_P2;PMS_P1;PMS_P2;Temp;Humidity;BMP_temperature;BMP_pressure;BME280_temperature;BME280_humidity;BME280_pressure;Samples;Min_cycle;Max_cycle;Signal;HPM_P1;HPM_P2
2020/12/27 00:02:10;;;;;;;17.27;11.98;;;-1.30;99.90;;;;;;5007310;28;20214;-23
2020/12/27 00:04:37;;;;;;;15.38;10.88;;;-1.30;99.90;;;;;;5007324;28;20222;-23
2020/12/27 00:07:04;;;;;;;17.40;13.20;;;-1.30;99.90;;;;;;5009421;28;20198;-23
2020/12/27 00:09:31;;;;;;;18.23;12.90;;;-1.30;99.90;;;;;;5009535;28;20216;-25
2020/12/27 00:11:57;;;;;;;18.77;14.50;;;-1.30;99.90;;;;;;5009243;28;20595;-24
2020/12/27 00:14:24;;;;;;;14.10;11.57;;;-1.30;99.90;;;;;;5008911;28;20204;-23
2020/12/27 00:16:51;;;;;;;16.48;11.38;;;-1.30;99.90;;;;;;5009663;28;20436;-24
2020/12/27 00:19:18;;;;;;;14.50;11.73;;;-1.30;99.90;;;;;;5009149;28;20581;-23
2020/12/27 00:21:44;;;;;;;16.40;12.88;;;-1.40;99.90;;;;;;5008859;28;20202;-24
2020/12/27 00:24:11;;;;;;;18.48;12.68;;;-1.40;99.90;;;;;;5012558;28;20246;-24
2020/12/27 00:26:38;;;;;;;17.20;12.35;;;-1.40;99.90;;;;;;5014415;28;20348;-24
2020/12/27 00:29:04;;;;;;;17.48;12.40;;;-1.40;99.90;;;;;;5014590;28;20202;-24
2020/12/27 00:31:32;;;;;;;14.93;12.60;;;-1.50;99.90;;;;;;5013382;28;20205;-25
2020/12/27 00:33:59;;;;;;;16.10;10.95;;;-1.40;99.90;;;;;;4994536;28;20628;-24
2020/12/27 00:36:26;;;;;;;13.77;11.07;;;-1.40;99.90;;;;;;5012672;28;20194;-24
2020/12/27 00:38:52;;;;;;;11.95;10.35;;;-1.50;99.90;;;;;;5011725;28;20245;-24
2020/12/27 00:41:23;;;;;;;17.75;10.63;;;-1.50;99.90;;;;;;5012251;28;20205;-25
2020/12/27 00:43:51;;;;;;;21.42;12.38;;;-1.50;99.90;;;;;;5013699;28;20635;-24
2020/12/27 00:46:18;;;;;;;13.70;11.27;;;-1.60;99.90;;;;;;5015453;28;20209;-24
2020/12/27 00:48:45;;;;;;;13.40;11.00;;;-1.50;99.90;;;;;;5014020;28;20228;-25
2020/12/27 00:51:12;;;;;;;11.90;10.43;;;-1.60;99.90;;;;;;5014129;28;20581;-24
2020/12/27 00:53:39;;;;;;;12.15;9.10;;;-1.50;99.90;;;;;;5014586;28;20545;-24
2020/12/27 00:56:09;;;;;;;13.10;9.23;;;-1.50;99.90;;;;;;5014102;28;20725;-24
2020/12/27 00:58:49;;;;;;;12.25;9.40;;;-1.50;99.90;;;;;;5013848;28;20194;-24
2020/12/27 01:01:16;;;;;;;13.73;10.10;;;-1.60;99.90;;;;;;5012195;28;20221;-25
2020/12/27 01:03:45;;;;;;;12.98;10.57;;;-1.70;99.90;;;;;;5010217;28;20520;-25
2020/12/27 01:06:22;;;;;;;12.98;11.38;;;-1.70;99.90;;;;;;5013502;28;20216;-24
2020/12/27 01:08:49;;;;;;;13.68;10.15;;;-1.60;99.90;;;;;;5012724;28;20463;-25
2020/12/27 01:11:16;;;;;;;12.65;9.90;;;-1.60;99.90;;;;;;5012485;28;20501;-25
2020/12/27 01:13:45;;;;;;;12.82;10.38;;;-1.60;99.90;;;;;;5011796;28;20194;-25
2020/12/27 01:16:13;;;;;;;15.23;10.13;;;-1.60;99.90;;;;;;4996268;28;20225;-25
2020/12/27 01:18:42;;;;;;;12.00;9.50;;;-1.60;99.90;;;;;;5012600;28;20202;-25
2020/12/27 01:21:09;;;;;;;11.07;8.65;;;-1.60;99.90;;;;;;5010623;28;20471;-25
2020/12/27 01:23:39;;;;;;;10.20;8.55;;;-1.60;99.90;;;;;;5009276;28;20566;-25
2020/12/27 01:26:06;;;;;;;11.57;8.98;;;-1.60;99.90;;;;;;5011020;28;20256;-26
2020/12/27 01:28:32;;;;;;;12.25;9.18;;;-1.60;99.90;;;;;;5011721;28;20209;-25
2020/12/27 01:31:07;;;;;;;12.95;9.52;;;-1.60;99.90;;;;;;5010476;28;20206;-25
2020/12/27 01:33:40;;;;;;;10.27;9.10;;;-1.60;99.90;;;;;;5008919;28;20343;-25
2020/12/27 01:36:09;;;;;;;16.23;10.77;;;-1.60;99.90;;;;;;5010991;28;20197;-25
2020/12/27 01:38:36;;;;;;;9.20;8.30;;;-1.60;99.90;;;;;;5010142;28;20194;-25
2020/12/27 01:41:04;;;;;;;9.82;8.75;;;-1.60;99.90;;;;;;5010841;28;20206;-23
2020/12/27 01:43:38;;;;;;;10.43;8.50;;;-1.60;99.90;;;;;;5012361;28;20217;-25
2020/12/27 01:46:06;;;;;;;9.45;8.10;;;-1.60;99.90;;;;;;5012146;28;20600;-25
2020/12/27 01:48:32;;;;;;;10.10;7.85;;;-1.60;99.90;;;;;;5011230;28;20218;-23
2020/12/27 01:51:03;;;;;;;11.00;8.70;;;-1.60;99.90;;;;;;5011702;28;20488;-23
2020/12/27 01:53:57;;;;;;;14.73;9.90;;;-1.60;99.90;;;;;;5008869;28;20198;-23
2020/12/27 01:57:03;;;;;;;10.52;9.43;;;-1.70;99.90;;;;;;5010852;28;20202;-23
2020/12/27 01:59:36;;;;;;;14.18;8.77;;;-1.70;99.90;;;;;;5013971;28;20208;-23
2020/12/27 02:02:18;;;;;;;12.40;9.63;;;-1.70;99.90;;;;;;5013018;28;20510;-23
2020/12/27 02:05:04;;;;;;;11.15;9.30;;;-1.80;99.90;;;;;;5010517;28;20237;-24
2020/12/27 02:07:32;;;;;;;12.40;9.15;;;-1.90;99.90;;;;;;5011085;28;20190;-25
2020/12/27 02:10:13;;;;;;;11.30;8.40;;;-1.90;99.90;;;;;;5010717;28;20309;-25
2020/12/27 02:12:41;;;;;;;16.58;9.73;;;-1.90;99.90;;;;;;5008955;28;20236;-24
2020/12/27 02:15:08;;;;;;;9.65;8.13;;;-2.00;99.90;;;;;;5011936;28;20190;-24
2020/12/27 02:17:55;;;;;;;10.32;8.05;;;-1.90;99.90;;;;;;5013257;28;20216;-25
2020/12/27 02:20:29;;;;;;;9.18;7.10;;;-1.90;99.90;;;;;;5013883;28;20436;-24
2020/12/27 02:23:10;;;;;;;9.60;8.02;;;-1.90;99.90;;;;;;5010903;28;20259;-24
2020/12/27 02:25:45;;;;;;;11.55;7.78;;;-1.80;99.90;;;;;;5010317;28;20194;-25
2020/12/27 02:28:26;;;;;;;10.00;8.45;;;-1.80;99.90;;;;;;5010059;28;20379;-24
2020/12/27 02:30:56;;;;;;;16.27;9.10;;;-1.90;99.90;;;;;;5010308;28;20752;-25
2020/12/27 02:33:23;;;;;;;12.07;8.50;;;-1.90;99.90;;;;;;5009215;28;20220;-26
2020/12/27 02:35:51;;;;;;;11.50;8.18;;;-1.90;99.90;;;;;;5010261;28;20198;-24
2020/12/27 02:38:22;;;;;;;15.48;8.45;;;-1.90;99.90;;;;;;5009962;28;20627;-25
2020/12/27 02:40:50;;;;;;;9.38;7.60;;;-1.90;99.90;;;;;;4991579;28;20293;-26
2020/12/27 02:43:34;;;;;;;10.30;8.30;;;-1.90;99.90;;;;;;5009054;28;20218;-25
2020/12/27 02:46:01;;;;;;;8.48;7.68;;;-1.90;99.90;;;;;;5009541;28;20407;-24
2020/12/27 02:48:46;;;;;;;8.30;7.47;;;-1.90;99.90;;;;;;5010167;28;20424;-25
2020/12/27 02:51:22;;;;;;;9.75;7.90;;;-1.90;99.90;;;;;;5009333;28;20263;-24
2020/12/27 02:53:51;;;;;;;9.45;7.63;;;-1.80;99.90;;;;;;5010267;28;20271;-24
2020/12/27 02:56:21;;;;;;;10.15;8.10;;;-1.80;99.90;;;;;;5009088;28;20631;-24
2020/12/27 02:58:51;;;;;;;8.52;7.20;;;-1.80;99.90;;;;;;5009546;28;20488;-25
2020/12/27 03:01:19;;;;;;;8.07;7.25;;;-1.80;99.90;;;;;;5010466;28;20378;-24
2020/12/27 03:04:09;;;;;;;11.43;7.60;;;-1.70;99.90;;;;;;5009728;28;20515;-24
2020/12/27 03:06:38;;;;;;;9.05;8.13;;;-1.70;99.90;;;;;;5008550;28;20301;-24
2020/12/27 03:09:15;;;;;;;11.90;8.77;;;-1.70;99.90;;;;;;5010571;28;20208;-25
2020/12/27 03:11:48;;;;;;;12.30;9.23;;;-1.70;99.90;;;;;;5010717;28;20334;-24
2020/12/27 03:14:15;;;;;;;11.50;8.32;;;-1.60;99.90;;;;;;5009815;28;20190;-24
2020/12/27 03:17:01;;;;;;;11.93;7.97;;;-1.60;99.90;;;;;;5010457;28;20228;-24
2020/12/27 03:19:43;;;;;;;8.80;7.32;;;-1.60;99.90;;;;;;5010337;28;20696;-24
2020/12/27 03:22:30;;;;;;;14.60;9.32;;;-1.60;99.90;;;;;;5010226;28;20206;-25
2020/12/27 03:25:07;;;;;;;8.65;7.53;;;-1.60;99.90;;;;;;5010948;28;20238;-24
2020/12/27 03:27:35;;;;;;;12.20;7.95;;;-1.70;99.90;;;;;;5009168;28;20198;-24
2020/12/27 03:30:03;;;;;;;10.02;8.27;;;-1.70;99.90;;;;;;5011712;28;20595;-25
2020/12/27 03:32:35;;;;;;;9.52;8.18;;;-1.60;99.90;;;;;;5007834;28;20220;-24
2020/12/27 03:35:04;;;;;;;10.93;8.55;;;-1.60;99.90;;;;;;5009489;28;20202;-24
2020/12/27 03:37:35;;;;;;;12.60;9.82;;;-1.70;99.90;;;;;;5009291;28;20213;-25
2020/12/27 03:40:25;;;;;;;14.32;10.05;;;-1.70;99.90;;;;;;5001739;28;20275;-24
2020/12/27 03:42:59;;;;;;;20.15;9.45;;;-1.50;99.90;;;;;;5010753;28;20221;-24
2020/12/27 03:45:28;;;;;;;14.15;9.82;;;-1.40;99.90;;;;;;4991537;28;20413;-24
2020/12/27 03:48:24;;;;;;;10.75;8.63;;;-1.30;99.90;;;;;;5005113;28;20216;-24
2020/12/27 03:50:58;;;;;;;11.50;9.23;;;-1.20;99.90;;;;;;5008584;28;20233;-25
2020/12/27 03:53:27;;;;;;;9.50;8.13;;;-1.10;99.90;;;;;;5008069;28;20225;-24
2020/12/27 03:56:01;;;;;;;12.88;9.27;;;-1.00;99.90;;;;;;5009228;28;20595;-24
2020/12/27 03:58:46;;;;;;;11.10;8.30;;;-0.90;99.90;;;;;;5011703;28;20639;-24
2020/12/27 04:01:31;;;;;;;10.90;8.70;;;-0.80;99.90;;;;;;5013545;28;20221;-24
2020/12/27 04:03:58;;;;;;;16.48;10.35;;;-0.80;99.90;;;;;;5013833;28;20523;-25
2020/12/27 04:06:24;;;;;;;11.00;9.15;;;-0.70;99.90;;;;;;5012151;28;20212;-25
2020/12/27 04:09:03;;;;;;;10.77;9.68;;;-0.70;99.90;;;;;;5013842;28;20229;-24
2020/12/27 04:11:30;;;;;;;14.25;11.55;;;-0.70;99.90;;;;;;5014002;28;20217;-24
2020/12/27 04:13:58;;;;;;;9.82;8.70;;;-0.60;99.90;;;;;;5011121;28;20549;-25
2020/12/27 04:16:25;;;;;;;9.73;8.82;;;-0.60;99.90;;;;;;5011748;28;20220;-24
2020/12/27 04:18:54;;;;;;;10.35;9.15;;;-0.70;99.90;;;;;;5011895;28;20256;-24
2020/12/27 04:21:35;;;;;;;9.35;8.10;;;-0.70;99.90;;;;;;5012776;28;20198;-24
2020/12/27 04:24:17;;;;;;;12.02;8.25;;;-0.70;99.90;;;;;;5012768;28;20650;-25
2020/12/27 04:26:48;;;;;;;12.27;9.48;;;-0.70;99.90;;;;;;5014023;28;20429;-24
2020/12/27 04:29:16;;;;;;;11.45;9.45;;;-0.70;99.90;;;;;;5012344;28;20403;-25
2020/12/27 04:31:53;;;;;;;12.50;9.40;;;-0.70;99.90;;;;;;4994457;28;20240;-24
2020/12/27 04:34:42;;;;;;;12.38;9.80;;;-0.70;99.90;;;;;;5011927;28;20190;-24
2020/12/27 04:37:09;;;;;;;11.52;10.25;;;-0.70;99.90;;;;;;5012723;28;20494;-24
2020/12/27 04:39:44;;;;;;;10.25;9.25;;;-0.70;99.90;;;;;;5014567;28;20212;-24
2020/12/27 04:42:10;;;;;;;12.32;10.30;;;-0.70;99.90;;;;;;5016645;28;20232;-25
2020/12/27 04:44:56;;;;;;;12.60;10.23;;;-0.70;99.90;;;;;;5015209;28;20769;-24
2020/12/27 04:47:40;;;;;;;14.13;10.98;;;-0.60;99.90;;;;;;4996218;28;20669;-24
2020/12/27 04:50:24;;;;;;;12.20;9.43;;;-0.60;99.90;;;;;;5011259;28;20610;-24
2020/12/27 04:52:51;;;;;;;11.25;9.30;;;-0.60;99.90;;;;;;5010557;28;20197;-24
2020/12/27 04:55:22;;;;;;;10.48;9.07;;;-0.60;99.90;;;;;;5012086;28;20183;-25
2020/12/27 04:58:08;;;;;;;11.60;9.20;;;-0.60;99.90;;;;;;5013126;28;20202;-25
2020/12/27 05:00:56;;;;;;;14.32;10.55;;;-0.60;99.90;;;;;;5012912;28;20229;-25
2020/12/27 05:03:50;;;;;;;12.10;8.45;;;-0.60;99.90;;;;;;5008120;28;20705;-25
2020/12/27 05:06:17;;;;;;;12.60;9.77;;;-0.70;99.90;;;;;;5009431;28;20287;-24
2020/12/27 05:08:44;;;;;;;12.60;10.30;;;-0.70;99.90;;;;;;5009888;28;20635;-26
2020/12/27 05:11:16;;;;;;;16.77;10.02;;;-0.70;99.90;;;;;;5008256;28;20360;-24
2020/12/27 05:13:48;;;;;;;12.55;9.73;;;-0.70;99.90;;;;;;5010342;28;20190;-25
2020/12/27 05:16:39;;;;;;;10.75;9.35;;;-0.70;99.90;;;;;;5009270;28;20210;-24
2020/12/27 05:19:07;;;;;;;10.38;9.27;;;-0.70;99.90;;;;;;5010125;28;20522;-25
2020/12/27 05:21:37;;;;;;;12.68;9.23;;;-0.70;99.90;;;;;;5010848;28;20210;-24
2020/12/27 05:24:09;;;;;;;8.95;8.05;;;-0.70;99.90;;;;;;5010177;28;20631;-25
2020/12/27 05:26:52;;;;;;;11.45;8.82;;;-0.70;99.90;;;;;;5010463;28;20201;-24
2020/12/27 05:29:42;;;;;;;10.20;7.60;;;-0.80;99.90;;;;;;5008373;28;20767;-24
2020/12/27 05:32:31;;;;;;;11.10;9.60;;;-0.80;99.90;;;;;;5010180;28;20233;-25
2020/12/27 05:35:16;;;;;;;10.00;8.98;;;-0.80;99.90;;;;;;5010034;28;20200;-25
2020/12/27 05:38:05;;;;;;;12.57;10.18;;;-0.80;99.90;;;;;;5009025;28;20201;-24
2020/12/27 05:40:57;;;;;;;13.20;9.88;;;-0.90;99.90;;;;;;5010402;28;20662;-25
2020/12/27 05:43:30;;;;;;;14.13;10.45;;;-0.90;99.90;;;;;;5009190;28;20727;-24
2020/12/27 05:46:07;;;;;;;12.10;9.95;;;-1.00;99.90;;;;;;5008170;28;20228;-24
2020/12/27 05:48:35;;;;;;;11.95;10.75;;;-1.00;99.90;;;;;;5008895;28;20264;-24
2020/12/27 05:51:04;;;;;;;16.45;12.10;;;-1.00;99.90;;;;;;5010955;28;20229;-24
2020/12/27 05:53:37;;;;;;;25.13;15.90;;;-1.00;99.90;;;;;;4996094;28;20277;-24
2020/12/27 05:56:10;;;;;;;21.13;13.95;;;-1.00;99.90;;;;;;5009454;28;20301;-24
2020/12/27 05:58:46;;;;;;;20.58;12.27;;;-1.00;99.90;;;;;;5009042;28;20190;-24
2020/12/27 06:01:22;;;;;;;13.75;10.35;;;-1.10;99.90;;;;;;5007343;28;20217;-24
2020/12/27 06:03:59;;;;;;;15.52;10.32;;;-1.10;99.90;;;;;;5007765;28;20236;-24
2020/12/27 06:07:04;;;;;;;17.00;11.93;;;-1.20;99.90;;;;;;5009836;28;20307;-24
2020/12/27 06:09:54;;;;;;;17.30;12.40;;;-1.20;99.90;;;;;;4947460;29;20505;-24
2020/12/27 06:12:27;;;;;;;15.68;11.48;;;-1.30;99.90;;;;;;4931349;29;20223;-25
2020/12/27 06:15:07;;;;;;;14.90;10.38;;;-1.20;99.90;;;;;;4990789;28;20603;-24
2020/12/27 06:18:08;;;;;;;16.08;12.50;;;-1.30;99.90;;;;;;5008519;28;20198;-24
2020/12/27 06:21:06;;;;;;;12.85;10.52;;;-1.30;99.90;;;;;;5007899;28;20450;-24
2020/12/27 06:23:35;;;;;;;11.57;10.38;;;-1.30;99.90;;;;;;5007526;28;20535;-24
2020/12/27 06:26:04;;;;;;;12.80;10.55;;;-1.20;99.90;;;;;;5007590;28;20459;-24
2020/12/27 06:28:33;;;;;;;14.93;10.82;;;-1.30;99.90;;;;;;5007578;28;20775;-25
2020/12/27 06:31:16;;;;;;;12.43;9.63;;;-1.30;99.90;;;;;;5007294;28;20236;-25
2020/12/27 06:33:44;;;;;;;36.05;24.52;;;-1.30;99.90;;;;;;5009163;28;20198;-24
2020/12/27 06:36:31;;;;;;;60.95;32.60;;;-1.40;99.90;;;;;;5009272;28;20201;-24
2020/12/27 06:38:57;;;;;;;14.68;12.10;;;-1.40;99.90;;;;;;5006801;28;20205;-24
2020/12/27 06:41:25;;;;;;;26.35;15.88;;;-1.40;99.90;;;;;;5009358;28;20198;-26
2020/12/27 06:44:41;;;;;;;22.45;10.65;;;-1.40;99.90;;;;;;5003925;28;20230;-25
2020/12/27 06:47:17;;;;;;;28.15;20.15;;;-1.40;99.90;;;;;;5006405;28;20655;-25
2020/12/27 06:50:15;;;;;;;13.55;10.35;;;-1.30;99.90;;;;;;5008225;28;20390;-24
2020/12/27 06:52:45;;;;;;;12.18;10.25;;;-1.30;99.90;;;;;;5008877;28;20435;-25
2020/12/27 06:55:37;;;;;;;17.05;11.88;;;-1.40;99.90;;;;;;5006133;28;20576;-24
2020/12/27 06:58:20;;;;;;;10.45;9.18;;;-1.50;99.90;;;;;;5007439;28;20194;-24
2020/12/27 07:00:48;;;;;;;13.05;11.38;;;-1.50;99.90;;;;;;5006113;28;20312;-25
2020/12/27 07:03:23;;;;;;;17.77;13.88;;;-1.40;99.90;;;;;;5006329;28;20194;-24
2020/12/27 07:05:50;;;;;;;17.90;11.35;;;-1.40;99.90;;;;;;5011604;28;20575;-24
2020/12/27 07:08:42;;;;;;;17.42;12.20;;;-1.30;99.90;;;;;;5010843;28;20194;-25
2020/12/27 07:11:10;;;;;;;13.85;10.50;;;-1.30;99.90;;;;;;5009028;28;20209;-24
2020/12/27 07:13:42;;;;;;;14.52;10.88;;;-1.20;99.90;;;;;;5007045;28;20642;-25
2020/12/27 07:16:11;;;;;;;15.52;11.55;;;-1.10;99.90;;;;;;5009192;28;20263;-24
2020/12/27 07:18:38;;;;;;;13.15;10.48;;;-1.20;99.90;;;;;;5007466;28;20198;-24
2020/12/27 07:21:11;;;;;;;11.23;9.27;;;-1.20;99.90;;;;;;5007813;28;20264;-24
2020/12/27 07:23:46;;;;;;;13.18;9.95;;;-1.10;99.90;;;;;;5008242;28;20237;-24
2020/12/27 07:26:13;;;;;;;15.90;13.10;;;-1.00;99.90;;;;;;5007902;28;20479;-24
2020/12/27 07:28:40;;;;;;;13.70;10.93;;;-1.00;99.90;;;;;;5007434;28;20206;-24
2020/12/27 07:31:07;;;;;;;11.35;10.00;;;-1.00;99.90;;;;;;5008621;28;20218;-25
2020/12/27 07:33:37;;;;;;;12.07;9.20;;;-0.90;99.90;;;;;;5007406;28;20254;-24
2020/12/27 07:36:05;;;;;;;10.18;8.60;;;-0.80;99.90;;;;;;5008954;28;20208;-25
2020/12/27 07:38:59;;;;;;;9.57;8.43;;;-0.80;99.90;;;;;;5008300;28;20236;-25
2020/12/27 07:41:28;;;;;;;10.75;9.65;;;-0.70;99.90;;;;;;5008552;28;20201;-24
2020/12/27 07:43:56;;;;;;;11.73;9.32;;;-0.70;99.90;;;;;;5005630;28;20210;-24
2020/12/27 07:46:23;;;;;;;12.25;9.25;;;-0.60;99.90;;;;;;5004655;28;20225;-24
2020/12/27 07:48:51;;;;;;;9.73;8.60;;;-0.50;99.90;;;;;;5008619;28;20373;-23
2020/12/27 07:51:19;;;;;;;10.43;9.32;;;-0.50;99.90;;;;;;5005388;28;20201;-23
2020/12/27 07:53:52;;;;;;;12.43;9.05;;;-0.40;99.90;;;;;;5005172;28;20324;-24
2020/12/27 07:56:22;;;;;;;10.85;9.18;;;-0.30;99.90;;;;;;5006425;28;20202;-24
2020/12/27 07:58:49;;;;;;;10.93;8.40;;;-0.20;99.90;;;;;;5008131;28;20214;-23
2020/12/27 08:01:21;;;;;;;10.00;8.70;;;-0.20;99.90;;;;;;5007831;28;20216;-23
2020/12/27 08:03:55;;;;;;;9.30;8.40;;;-0.10;99.90;;;;;;5005758;28;20194;-24
2020/12/27 08:06:23;;;;;;;10.05;8.68;;;-0.10;99.90;;;;;;5006161;28;20208;-25
2020/12/27 08:08:59;;;;;;;8.80;8.00;;;-0.10;99.90;;;;;;5003891;28;20186;-23
2020/12/27 08:11:28;;;;;;;13.37;9.20;;;0.00;99.90;;;;;;5007172;28;20186;-25
2020/12/27 08:13:57;;;;;;;10.40;7.80;;;0.10;99.90;;;;;;5008116;28;20836;-25
2020/12/27 08:16:24;;;;;;;9.60;8.60;;;0.10;99.90;;;;;;5006532;28;20285;-25
2020/12/27 08:19:04;;;;;;;12.18;9.23;;;0.20;99.90;;;;;;5006286;28;20715;-25
2020/12/27 08:21:32;;;;;;;9.63;8.60;;;0.20;99.90;;;;;;5006318;28;20216;-25
2020/12/27 08:24:00;;;;;;;8.43;7.63;;;0.40;99.90;;;;;;5008400;28;20850;-25
2020/12/27 08:26:28;;;;;;;11.15;8.80;;;0.50;99.90;;;;;;5010407;28;20260;-25
2020/12/27 08:29:08;;;;;;;10.63;8.07;;;0.50;99.90;;;;;;5007645;28;20284;-26
2020/12/27 08:31:35;;;;;;;8.73;7.90;;;0.50;99.90;;;;;;5005689;28;20513;-25
2020/12/27 08:34:06;;;;;;;10.20;8.50;;;0.70;99.90;;;;;;5008321;28;20631;-25
2020/12/27 08:36:34;;;;;;;10.40;8.53;;;0.70;99.90;;;;;;5008293;28;20482;-25
2020/12/27 08:39:08;;;;;;;7.90;7.10;;;0.80;99.90;;;;;;5009631;28;20734;-25
2020/12/27 08:41:39;;;;;;;8.83;7.60;;;0.90;99.90;;;;;;5004943;28;20435;-25
2020/12/27 08:44:32;;;;;;;23.70;14.07;;;1.00;99.90;;;;;;5009251;28;20464;-25
2020/12/27 08:47:06;;;;;;;17.13;12.87;;;1.10;99.90;;;;;;5010178;28;20525;-25
2020/12/27 08:49:44;;;;;;;15.13;12.40;;;1.20;99.90;;;;;;5010388;28;20440;-25
2020/12/27 08:52:19;;;;;;;13.27;11.77;;;1.10;99.90;;;;;;5009067;28;20794;-26
2020/12/27 08:54:53;;;;;;;10.77;9.60;;;1.10;99.90;;;;;;5007932;28;20460;-25
2020/12/27 08:57:22;;;;;;;12.83;9.17;;;1.20;99.90;;;;;;5015607;28;20489;-25
2020/12/27 09:00:01;;;;;;;12.53;7.90;;;1.10;99.90;;;;;;5013640;28;20439;-25
2020/12/27 09:02:28;;;;;;;11.40;8.93;;;1.20;99.90;;;;;;5014057;28;20447;-25
2020/12/27 09:05:09;;;;;;;12.20;9.37;;;1.30;99.90;;;;;;5013196;28;20472;-25
2020/12/27 09:07:38;;;;;;;12.37;8.10;;;1.40;99.90;;;;;;5011555;28;20482;-25
2020/12/27 09:10:06;;;;;;;8.83;8.03;;;1.50;99.90;;;;;;5007937;28;20735;-25
2020/12/27 09:12:34;;;;;;;8.67;7.87;;;1.70;99.90;;;;;;5011707;28;20501;-25
2020/12/27 09:15:01;;;;;;;14.17;11.07;;;1.80;99.90;;;;;;5012470;28;20892;-25
2020/12/27 09:17:28;;;;;;;7.70;7.00;;;1.80;99.90;;;;;;5013971;28;20440;-25
2020/12/27 09:19:56;;;;;;;9.43;8.33;;;1.80;99.90;;;;;;5013141;28;20727;-25
2020/12/27 09:22:23;;;;;;;9.17;8.13;;;1.90;99.90;;;;;;5012313;28;20849;-25
2020/12/27 09:25:05;;;;;;;9.50;8.53;;;2.10;99.90;;;;;;5011369;28;20483;-25
2020/12/27 09:27:31;;;;;;;11.30;10.00;;;2.20;99.90;;;;;;5012473;28;20432;-26
2020/12/27 09:30:03;;;;;;;11.90;10.67;;;2.30;99.90;;;;;;5012720;28;20479;-25
2020/12/27 09:32:33;;;;;;;14.30;12.20;;;2.40;99.90;;;;;;5010756;28;20446;-25
2020/12/27 09:35:00;;;;;;;11.23;10.13;;;2.40;99.90;;;;;;4993062;28;20999;-25
2020/12/27 09:37:32;;;;;;;10.10;9.13;;;2.50;99.90;;;;;;5010214;28;20452;-25
2020/12/27 09:40:00;;;;;;;11.87;10.40;;;2.50;99.90;;;;;;5010423;28;20447;-25
2020/12/27 09:42:28;;;;;;;11.00;9.87;;;2.50;99.90;;;;;;5010137;28;20446;-25
2020/12/27 09:44:56;;;;;;;8.20;7.40;;;2.60;99.90;;;;;;5010733;28;20499;-26
2020/12/27 09:47:25;;;;;;;11.07;8.20;;;2.60;99.90;;;;;;5009207;28;20442;-26
2020/12/27 09:50:04;;;;;;;8.23;7.43;;;2.60;99.90;;;;;;4999538;28;20699;-23
2020/12/27 09:52:30;;;;;;;7.70;6.90;;;2.70;99.90;;;;;;4994955;28;20456;-25
2020/12/27 09:54:57;;;;;;;7.57;6.87;;;2.80;99.90;;;;;;5000641;28;20429;-25
2020/12/27 09:57:27;;;;;;;7.53;6.80;;;2.80;99.90;;;;;;4999932;28;20491;-25
2020/12/27 09:59:54;;;;;;;7.90;7.10;;;2.80;99.90;;;;;;5000484;28;20744;-24
2020/12/27 10:02:21;;;;;;;10.77;6.73;;;2.90;99.90;;;;;;4999042;28;20448;-24
2020/12/27 10:04:49;;;;;;;9.90;7.90;;;2.90;99.90;;;;;;4994763;28;20468;-25
2020/12/27 10:07:16;;;;;;;8.70;7.00;;;3.00;99.90;;;;;;5000811;28;20850;-25
2020/12/27 10:09:42;;;;;;;8.73;7.93;;;3.00;99.90;;;;;;5000299;28;20546;-24
2020/12/27 10:12:09;;;;;;;7.60;6.90;;;3.00;99.90;;;;;;4997695;28;20482;-24
2020/12/27 10:14:36;;;;;;;8.57;7.30;;;3.10;99.90;;;;;;5000616;28;20535;-24
2020/12/27 10:17:02;;;;;;;7.87;7.00;;;3.20;99.90;;;;;;5000501;28;20698;-25
2020/12/27 10:19:29;;;;;;;7.27;6.70;;;3.30;99.90;;;;;;5003001;28;20550;-24
2020/12/27 10:21:57;;;;;;;7.80;7.00;;;3.30;99.90;;;;;;5015201;28;20436;-24
2020/12/27 10:24:26;;;;;;;6.83;6.10;;;3.30;99.90;;;;;;5014074;28;20590;-24
2020/12/27 10:26:53;;;;;;;8.80;6.20;;;3.40;99.90;;;;;;5014480;28;20530;-24
2020/12/27 10:29:21;;;;;;;7.50;6.70;;;3.50;99.90;;;;;;5014074;28;20452;-24
2020/12/27 10:31:51;;;;;;;7.03;6.33;;;3.60;99.90;;;;;;5012340;28;20469;-24
2020/12/27 10:34:17;;;;;;;6.90;5.97;;;3.70;99.90;;;;;;4998354;28;20735;-26
2020/12/27 10:36:45;;;;;;;7.53;6.83;;;3.80;99.90;;;;;;4990105;28;20709;-25
2020/12/27 10:39:15;;;;;;;7.73;6.93;;;3.70;99.90;;;;;;4971751;28;20658;-25
2020/12/27 10:41:42;;;;;;;7.10;6.40;;;3.60;99.90;;;;;;4990721;28;20440;-25
2020/12/27 10:44:09;;;;;;;8.30;6.73;;;3.70;99.90;;;;;;4990345;28;20478;-26
2020/12/27 10:46:36;;;;;;;7.00;6.30;;;3.70;99.90;;;;;;4988688;28;20453;-25
2020/12/27 10:49:03;;;;;;;7.60;6.10;;;3.70;99.90;;;;;;4989402;28;20440;-25
2020/12/27 10:51:34;;;;;;;6.93;6.10;;;3.70;99.90;;;;;;4990618;28;20443;-26
2020/12/27 10:54:00;;;;;;;7.43;6.73;;;3.70;99.90;;;;;;4989116;28;20514;-25
2020/12/27 10:56:28;;;;;;;6.83;6.20;;;3.70;99.90;;;;;;4989497;28;20498;-25
2020/12/27 10:58:54;;;;;;;6.77;6.20;;;3.70;99.90;;;;;;4989465;28;20436;-25
2020/12/27 11:01:21;;;;;;;7.30;6.60;;;3.80;99.90;;;;;;4989803;28;20466;-25
2020/12/27 11:03:48;;;;;;;9.90;6.83;;;3.80;99.90;;;;;;4990127;28;20942;-26
2020/12/27 11:06:15;;;;;;;7.20;6.60;;;3.80;99.90;;;;;;4971473;28;20535;-25
2020/12/27 11:08:41;;;;;;;7.03;6.40;;;3.90;99.90;;;;;;4988506;28;20448;-25
2020/12/27 11:11:08;;;;;;;6.50;5.97;;;3.90;99.90;;;;;;4988241;28;20862;-25
2020/12/27 11:13:36;;;;;;;8.73;7.07;;;3.90;99.90;;;;;;5001875;28;20900;-25
2020/12/27 11:16:03;;;;;;;7.03;6.30;;;3.90;99.90;;;;;;5009480;28;20473;-25
2020/12/27 11:18:30;;;;;;;7.03;6.37;;;3.90;99.90;;;;;;5010259;28;20923;-25
2020/12/27 11:20:56;;;;;;;6.93;6.30;;;3.90;99.90;;;;;;5001798;28;20505;-26
2020/12/27 11:23:23;;;;;;;8.00;6.90;;;3.90;99.90;;;;;;4991248;28;20452;-26
2020/12/27 11:25:50;;;;;;;7.33;6.70;;;3.90;99.90;;;;;;4986331;28;20476;-26
2020/12/27 11:28:16;;;;;;;6.93;6.23;;;4.00;99.90;;;;;;4985577;28;20490;-26
2020/12/27 11:30:44;;;;;;;6.70;6.00;;;4.00;99.90;;;;;;4986037;28;20495;-26
2020/12/27 11:33:10;;;;;;;6.23;5.73;;;4.00;99.90;;;;;;4986003;28;20502;-25
2020/12/27 11:35:37;;;;;;;6.50;5.97;;;3.90;99.90;;;;;;4984884;28;20452;-26
2020/12/27 11:38:03;;;;;;;6.83;6.13;;;3.90;99.90;;;;;;4986262;28;20471;-26
2020/12/27 11:40:30;;;;;;;7.67;6.90;;;3.90;99.90;;;;;;4986501;28;20482;-25
2020/12/27 11:42:59;;;;;;;7.57;6.70;;;3.80;99.90;;;;;;4986453;28;20870;-26
2020/12/27 11:45:26;;;;;;;8.07;7.30;;;3.80;99.90;;;;;;4986529;28;20496;-25
2020/12/27 11:47:53;;;;;;;9.40;8.17;;;3.90;99.90;;;;;;4985849;28;20737;-26
2020/12/27 11:50:20;;;;;;;11.30;8.00;;;3.90;99.90;;;;;;4985630;28;20854;-26
2020/12/27 11:52:47;;;;;;;9.40;8.47;;;3.90;99.90;;;;;;4986754;28;20547;-25
2020/12/27 11:55:13;;;;;;;10.70;8.97;;;3.90;99.90;;;;;;4984318;28;20495;-26
2020/12/27 11:57:40;;;;;;;8.97;8.17;;;4.00;99.90;;;;;;4983171;28;20440;-26
2020/12/27 12:00:07;;;;;;;7.50;6.80;;;4.00;99.90;;;;;;4986622;28;20483;-25
2020/12/27 12:02:39;;;;;;;9.47;6.60;;;4.00;99.90;;;;;;4984755;28;20479;-26
2020/12/27 12:05:06;;;;;;;8.47;6.20;;;4.00;99.90;;;;;;4984000;28;20476;-25
2020/12/27 12:07:33;;;;;;;7.33;6.63;;;3.90;99.90;;;;;;4983273;28;20455;-26
2020/12/27 12:09:59;;;;;;;7.07;6.47;;;3.90;99.90;;;;;;4985039;28;20455;-26
2020/12/27 12:12:26;;;;;;;7.53;6.83;;;3.90;99.90;;;;;;4984218;28;20451;-24
2020/12/27 12:14:54;;;;;;;8.43;6.33;;;4.00;99.90;;;;;;4982939;28;20476;-25
2020/12/27 12:17:20;;;;;;;8.27;7.37;;;3.90;99.90;;;;;;4984854;28;20778;-25
2020/12/27 12:19:47;;;;;;;11.10;7.23;;;3.80;99.90;;;;;;4987528;28;20452;-25
2020/12/27 12:22:14;;;;;;;8.70;5.97;;;3.90;99.90;;;;;;4988363;28;21040;-25
2020/12/27 12:24:41;;;;;;;7.03;6.33;;;4.00;99.90;;;;;;4989826;28;20484;-25
2020/12/27 12:27:07;;;;;;;7.10;6.47;;;4.00;99.90;;;;;;4988702;28;20713;-25
2020/12/27 12:29:34;;;;;;;7.80;7.00;;;4.10;99.90;;;;;;4989051;28;20796;-25
2020/12/27 12:32:01;;;;;;;11.83;7.43;;;4.10;99.90;;;;;;4987852;28;20862;-25
2020/12/27 12:34:27;;;;;;;6.43;5.83;;;4.20;99.90;;;;;;4990654;28;20519;-25
2020/12/27 12:36:54;;;;;;;7.00;6.30;;;4.10;99.90;;;;;;4990851;28;20495;-26
2020/12/27 12:39:21;;;;;;;8.73;7.10;;;4.10;99.90;;;;;;4989185;28;20794;-25
2020/12/27 12:41:49;;;;;;;11.43;9.20;;;4.10;99.90;;;;;;4989571;28;20729;-25
2020/12/27 12:44:15;;;;;;;8.33;6.63;;;4.10;99.90;;;;;;4989353;28;20708;-25
2020/12/27 12:46:42;;;;;;;6.97;6.27;;;4.20;99.90;;;;;;4990007;28;20459;-25
2020/12/27 12:49:08;;;;;;;7.60;6.90;;;4.20;99.90;;;;;;4987421;28;20447;-25
2020/12/27 12:51:37;;;;;;;11.57;9.33;;;4.20;99.90;;;;;;4985815;28;20440;-25
2020/12/27 12:54:04;;;;;;;8.57;7.50;;;4.30;99.90;;;;;;4987979;28;20440;-26
2020/12/27 12:56:31;;;;;;;8.10;7.23;;;4.30;99.90;;;;;;4987926;28;20452;-25
2020/12/27 12:58:58;;;;;;;6.60;6.00;;;4.20;99.90;;;;;;4991123;28;20475;-25
2020/12/27 13:01:25;;;;;;;8.17;7.40;;;4.20;99.90;;;;;;4990967;28;20464;-25
2020/12/27 13:03:51;;;;;;;11.17;7.63;;;4.30;99.90;;;;;;4988791;28;20684;-25
2020/12/27 13:06:18;;;;;;;8.67;7.10;;;4.30;99.90;;;;;;4988026;28;20475;-25